createdAt,value
2022-08-07T00:00:12.538Z,6.80
2022-08-07T00:01:44.069Z,8.20
2022-08-07T00:03:11.585Z,8.00
2022-08-07T00:04:18.949Z,6.70
2022-08-07T00:05:32.549Z,9.50
2022-08-07T00:06:51.614Z,4.40
2022-08-07T00:08:02.176Z,7.40
2022-08-07T00:09:16.761Z,5.40
2022-08-07T00:10:30.856Z,7.40
2022-08-07T00:11:47.764Z,6.20
2022-08-07T00:13:24.054Z,8.50
2022-08-07T00:14:33.373Z,5.80
2022-08-07T00:15:46.789Z,6.80
2022-08-07T00:17:03.019Z,7.10
2022-08-07T00:18:19.730Z,5.90
2022-08-07T00:19:34.247Z,6.40
2022-08-07T00:21:08.285Z,6.40
2022-08-07T00:22:34.954Z,5.00
2022-08-07T00:23:45.507Z,4.60
2022-08-07T00:24:54.052Z,5.10
2022-08-07T00:26:13.167Z,7.80
2022-08-07T00:27:51.750Z,6.20
2022-08-07T00:29:03.126Z,4.80
2022-08-07T00:30:21.551Z,7.10
2022-08-07T00:31:38.186Z,5.20
2022-08-07T00:32:52.165Z,6.10
2022-08-07T00:34:02.312Z,5.30
2022-08-07T00:35:10.554Z,6.70
2022-08-07T00:36:17.413Z,5.30
2022-08-07T00:37:26.269Z,4.80
2022-08-07T00:38:50.487Z,5.00
2022-08-07T00:39:58.403Z,4.30
2022-08-07T00:41:10.023Z,6.70
2022-08-07T00:42:29.025Z,4.70
2022-08-07T00:44:00.627Z,5.90
2022-08-07T00:45:08.535Z,6.70
2022-08-07T00:46:24.583Z,5.50
2022-08-07T00:48:09.548Z,6.50
2022-08-07T00:49:02.703Z,7.70
2022-08-07T00:50:19.249Z,4.90
2022-08-07T00:51:58.540Z,5.10
2022-08-07T00:53:06.673Z,4.90
2022-08-07T00:54:19.892Z,5.50
2022-08-07T00:56:00.584Z,6.60
2022-08-07T00:56:58.495Z,4.20
2022-08-07T00:58:05.543Z,5.30
2022-08-07T00:59:12.062Z,5.20
2022-08-07T01:00:22.820Z,4.10
2022-08-07T01:01:43.975Z,5.30
2022-08-07T01:02:54.140Z,5.10
2022-08-07T01:04:09.016Z,5.80
2022-08-07T01:05:19.019Z,4.90
2022-08-07T01:06:29.633Z,3.90
2022-08-07T01:07:37.493Z,4.10
2022-08-07T01:08:53.328Z,4.70
2022-08-07T01:10:04.374Z,4.20
2022-08-07T01:12:10.139Z,3.70
2022-08-07T01:12:53.851Z,4.20
2022-08-07T01:14:03.486Z,8.20
2022-08-07T01:15:12.054Z,4.30
2022-08-07T01:16:30.486Z,4.60
2022-08-07T01:17:41.140Z,3.80
2022-08-07T01:18:49.417Z,4.10
2022-08-07T01:20:05.667Z,4.50
2022-08-07T01:21:22.843Z,4.00
2022-08-07T01:22:37.562Z,3.90
2022-08-07T01:23:58.914Z,3.70
2022-08-07T01:25:53.830Z,4.40
2022-08-07T01:26:35.286Z,5.60
2022-08-07T01:27:51.165Z,3.90
2022-08-07T01:29:02.696Z,4.80
2022-08-07T01:30:14.449Z,3.50
2022-08-07T01:31:42.881Z,4.30
2022-08-07T01:32:55.535Z,3.90
2022-08-07T01:34:08.925Z,5.60
2022-08-07T01:35:20.372Z,3.80
2022-08-07T01:36:33.754Z,4.40
2022-08-07T01:37:45.515Z,3.40
2022-08-07T01:38:53.371Z,3.60
2022-08-07T01:40:14.791Z,6.50
2022-08-07T01:41:34.925Z,5.40
2022-08-07T01:42:58.553Z,3.90
2022-08-07T01:44:13.328Z,3.20
2022-08-07T01:45:36.233Z,3.60
2022-08-07T01:46:57.365Z,4.30
2022-08-07T01:48:20.924Z,4.60
2022-08-07T01:49:39.503Z,3.60
2022-08-07T01:50:51.292Z,5.40
2022-08-07T01:52:11.102Z,3.90
2022-08-07T01:54:09.666Z,5.60
2022-08-07T01:54:53.046Z,4.10
2022-08-07T01:56:08.132Z,3.40
2022-08-07T01:57:25.574Z,3.50
2022-08-07T01:58:40.136Z,3.80
2022-08-07T02:00:12.904Z,4.50
2022-08-07T02:01:59.698Z,6.10
2022-08-07T02:03:18.803Z,4.20
2022-08-07T02:04:52.580Z,6.80
2022-08-07T02:06:31.396Z,5.70
2022-08-07T02:08:10.705Z,5.20
2022-08-07T02:09:52.326Z,6.40
2022-08-07T02:10:55.466Z,6.80
2022-08-07T02:12:18.632Z,4.60
2022-08-07T02:13:56.863Z,3.80
2022-08-07T02:15:00.902Z,4.20
2022-08-07T02:16:29.903Z,4.20
2022-08-07T02:17:49.527Z,4.60
2022-08-07T02:19:05.368Z,5.00
2022-08-07T02:20:33.032Z,4.70
2022-08-07T02:21:55.592Z,4.00
2022-08-07T02:23:06.722Z,6.30
2022-08-07T02:24:17.920Z,7.00
2022-08-07T02:25:32.113Z,4.50
2022-08-07T02:26:55.749Z,4.90
2022-08-07T02:28:11.378Z,6.80
2022-08-07T02:29:18.917Z,4.20
2022-08-07T02:30:30.763Z,6.40
2022-08-07T02:31:39.098Z,5.20
2022-08-07T02:33:00.387Z,4.40
2022-08-07T02:34:17.357Z,6.40
2022-08-07T02:36:30.820Z,3.80
2022-08-07T02:36:59.497Z,5.40
2022-08-07T02:38:09.322Z,2.90
2022-08-07T02:39:43.145Z,4.80
2022-08-07T02:40:55.519Z,4.30
2022-08-07T02:42:10.297Z,4.70
2022-08-07T02:43:23.888Z,3.50
2022-08-07T02:44:34.700Z,5.20
2022-08-07T02:45:58.209Z,5.40
2022-08-07T02:47:19.939Z,6.60
2022-08-07T02:48:47.077Z,6.20
2022-08-07T02:50:05.206Z,3.80
2022-08-07T02:51:42.768Z,3.80
2022-08-07T02:53:06.439Z,3.60
2022-08-07T02:54:15.522Z,7.10
2022-08-07T02:56:03.153Z,3.70
2022-08-07T02:56:58.204Z,4.80
2022-08-07T02:58:12.289Z,4.90
2022-08-07T02:59:24.194Z,4.40
2022-08-07T03:00:41.118Z,4.10
2022-08-07T03:01:57.669Z,4.30
2022-08-07T03:03:13.467Z,6.70
2022-08-07T03:04:22.890Z,5.20
2022-08-07T03:05:38.112Z,4.00
2022-08-07T03:06:48.549Z,3.40
2022-08-07T03:08:04.947Z,3.70
2022-08-07T03:09:42.265Z,5.60
2022-08-07T03:10:52.297Z,4.90
2022-08-07T03:12:19.175Z,6.70
2022-08-07T03:13:39.275Z,7.10
2022-08-07T03:15:02.472Z,8.80
2022-08-07T03:16:17.324Z,3.60
2022-08-07T03:17:27.543Z,4.90
2022-08-07T03:18:39.552Z,4.90
2022-08-07T03:19:55.149Z,11.10
2022-08-07T03:21:08.676Z,4.70
2022-08-07T03:22:24.141Z,5.40
2022-08-07T03:24:20.341Z,5.10
2022-08-07T03:25:10.325Z,6.00
2022-08-07T03:26:23.762Z,5.90
2022-08-07T03:27:41.994Z,4.00
2022-08-07T03:29:02.702Z,5.80
2022-08-07T03:30:12.931Z,5.60
2022-08-07T03:31:26.127Z,4.70
2022-08-07T03:32:58.519Z,7.90
2022-08-07T03:34:10.559Z,6.50
2022-08-07T03:35:38.008Z,6.50
2022-08-07T03:36:54.995Z,4.50
2022-08-07T03:38:29.937Z,3.90
2022-08-07T03:39:59.133Z,4.70
2022-08-07T03:41:11.496Z,10.70
2022-08-07T03:42:20.046Z,6.00
2022-08-07T03:43:32.394Z,4.20
2022-08-07T03:44:41.653Z,6.00
2022-08-07T03:45:48.859Z,4.00
2022-08-07T03:47:13.362Z,5.70
2022-08-07T03:48:25.870Z,6.90
2022-08-07T03:49:34.450Z,5.00
2022-08-07T03:50:56.214Z,5.10
2022-08-07T03:52:22.964Z,5.30
2022-08-07T03:54:05.915Z,3.40
2022-08-07T03:55:08.502Z,4.90
2022-08-07T03:56:33.073Z,5.30
2022-08-07T03:58:08.819Z,7.00
2022-08-07T03:59:16.665Z,6.00
2022-08-07T04:00:30.677Z,6.50
2022-08-07T04:01:45.851Z,3.40
2022-08-07T04:02:56.992Z,5.80
2022-08-07T04:04:10.779Z,8.00
2022-08-07T04:05:41.037Z,7.40
2022-08-07T04:07:01.873Z,7.50
2022-08-07T04:08:29.662Z,6.80
2022-08-07T04:09:44.658Z,6.80
2022-08-07T04:12:23.724Z,5.40
2022-08-07T04:12:32.657Z,7.50
2022-08-07T04:14:10.705Z,7.60
2022-08-07T04:15:11.948Z,5.40
2022-08-07T04:16:30.210Z,5.10
2022-08-07T04:18:30.838Z,5.90
2022-08-07T04:19:15.094Z,5.80
2022-08-07T04:20:30.900Z,4.50
2022-08-07T04:21:39.219Z,7.60
2022-08-07T04:23:01.455Z,6.00
2022-08-07T04:24:30.776Z,7.30
2022-08-07T04:25:43.914Z,7.20
2022-08-07T04:26:52.545Z,8.80
2022-08-07T04:28:02.631Z,6.30
2022-08-07T04:29:11.175Z,6.60
2022-08-07T04:30:21.558Z,5.90
2022-08-07T04:32:03.281Z,6.10
2022-08-07T04:33:18.425Z,5.80
2022-08-07T04:34:33.389Z,5.60
2022-08-07T04:35:50.459Z,4.20
2022-08-07T04:37:02.426Z,5.90
2022-08-07T04:38:17.083Z,5.10
2022-08-07T04:39:26.419Z,5.70
2022-08-07T04:40:34.345Z,4.90
2022-08-07T04:41:42.472Z,5.60
2022-08-07T04:43:01.827Z,8.00
2022-08-07T04:44:18.596Z,5.40
2022-08-07T04:45:57.217Z,5.50
2022-08-07T04:47:08.951Z,5.60
2022-08-07T04:48:36.841Z,4.70
2022-08-07T04:50:05.537Z,4.80
2022-08-07T04:51:56.205Z,3.70
2022-08-07T04:54:01.661Z,5.20
2022-08-07T04:58:07.923Z,5.70
2022-08-07T04:58:12.968Z,4.00
2022-08-07T04:59:07.755Z,8.20
2022-08-07T05:00:18.848Z,4.80
2022-08-07T05:01:46.762Z,6.30
2022-08-07T05:03:31.251Z,5.00
2022-08-07T05:05:00.507Z,4.40
2022-08-07T05:06:19.529Z,5.20
2022-08-07T05:07:37.021Z,5.30
2022-08-07T05:09:10.919Z,5.40
2022-08-07T05:10:26.787Z,4.80
2022-08-07T05:11:58.475Z,6.30
2022-08-07T05:14:54.374Z,4.70
2022-08-07T05:15:03.449Z,4.80
2022-08-07T05:16:16.978Z,7.00
2022-08-07T05:18:00.761Z,6.90
2022-08-07T05:19:01.109Z,4.40
2022-08-07T05:20:12.846Z,9.10
2022-08-07T05:21:25.288Z,5.90
2022-08-07T05:22:52.029Z,5.90
2022-08-07T05:24:03.385Z,5.50
2022-08-07T05:25:11.556Z,4.00
2022-08-07T05:26:24.135Z,6.40
2022-08-07T05:28:02.081Z,5.90
2022-08-07T05:29:11.138Z,5.00
2022-08-07T05:30:30.253Z,5.00
2022-08-07T05:31:51.243Z,6.00
2022-08-07T05:33:05.842Z,6.90
2022-08-07T05:34:15.750Z,4.70
2022-08-07T05:35:33.879Z,7.00
2022-08-07T05:37:05.695Z,5.00
2022-08-07T05:38:59.451Z,4.90
2022-08-07T05:40:05.054Z,4.60
2022-08-07T05:41:18.278Z,4.80
2022-08-07T05:42:34.508Z,6.20
2022-08-07T05:44:08.805Z,5.10
2022-08-07T05:45:26.088Z,5.70
2022-08-07T05:46:44.042Z,5.10
2022-08-07T05:48:01.596Z,6.00
2022-08-07T05:49:40.436Z,4.40
2022-08-07T05:50:50.752Z,8.10
2022-08-07T05:52:00.066Z,6.50
2022-08-07T05:53:08.264Z,5.00
2022-08-07T05:54:53.586Z,5.40
2022-08-07T05:56:06.115Z,7.20
2022-08-07T05:57:19.418Z,4.70
2022-08-07T05:58:28.859Z,7.00
2022-08-07T05:59:57.082Z,5.50
2022-08-07T06:01:10.951Z,9.60
2022-08-07T06:02:28.825Z,7.80
2022-08-07T06:03:56.813Z,6.30
2022-08-07T06:05:10.796Z,4.80
2022-08-07T06:06:18.898Z,7.80
2022-08-07T06:08:13.648Z,8.10
2022-08-07T06:08:58.392Z,7.10
2022-08-07T06:10:07.177Z,7.10
2022-08-07T06:11:26.340Z,5.80
2022-08-07T06:12:34.784Z,6.40
2022-08-07T06:14:12.338Z,7.20
2022-08-07T06:15:15.266Z,6.20
2022-08-07T06:16:25.806Z,8.20
2022-08-07T06:17:41.224Z,9.10
2022-08-07T06:19:03.792Z,6.40
2022-08-07T06:20:32.059Z,7.50
2022-08-07T06:22:16.309Z,6.90
2022-08-07T06:23:45.799Z,5.20
2022-08-07T06:24:52.954Z,5.50
2022-08-07T06:26:14.210Z,7.30
2022-08-07T06:28:00.456Z,5.70
2022-08-07T06:29:01.680Z,6.00
2022-08-07T06:30:32.453Z,9.20
2022-08-07T06:31:50.493Z,6.40
2022-08-07T06:32:59.678Z,5.60
2022-08-07T06:34:07.597Z,6.10
2022-08-07T06:35:17.786Z,5.60
2022-08-07T06:36:34.874Z,7.40
2022-08-07T06:37:45.968Z,5.30
2022-08-07T06:40:12.618Z,7.20
2022-08-07T06:40:23.430Z,5.20
2022-08-07T06:42:01.029Z,7.60
2022-08-07T06:43:22.560Z,6.10
2022-08-07T06:44:45.535Z,5.70
2022-08-07T06:46:00.280Z,5.50
2022-08-07T06:47:12.271Z,6.00
2022-08-07T06:48:25.150Z,5.20
2022-08-07T06:49:33.449Z,8.00
2022-08-07T06:51:07.868Z,6.20
2022-08-07T06:52:16.050Z,5.30
2022-08-07T06:54:12.047Z,5.50
2022-08-07T06:55:31.894Z,6.00
2022-08-07T06:56:49.691Z,5.80
2022-08-07T06:58:10.503Z,6.20
2022-08-07T07:00:14.775Z,5.90
2022-08-07T07:01:05.330Z,7.70
2022-08-07T07:02:26.936Z,8.80
2022-08-07T07:03:55.098Z,5.90
2022-08-07T07:05:13.257Z,7.60
2022-08-07T07:07:00.462Z,6.00
2022-08-07T07:08:10.027Z,8.30
2022-08-07T07:09:31.663Z,8.50
2022-08-07T07:10:38.147Z,6.20
2022-08-07T07:12:19.824Z,7.40
2022-08-07T07:13:55.765Z,7.90
2022-08-07T07:15:26.218Z,9.70
2022-08-07T07:16:49.669Z,7.50
2022-08-07T07:18:48.179Z,6.70
2022-08-07T07:19:59.174Z,7.50
2022-08-07T07:22:04.108Z,9.60
2022-08-07T07:24:08.348Z,11.50
2022-08-07T07:24:32.077Z,6.90
2022-08-07T07:26:35.580Z,8.90
2022-08-07T07:27:10.752Z,6.50
2022-08-07T07:28:48.704Z,5.90
2022-08-07T07:30:09.924Z,5.60
2022-08-07T07:31:39.802Z,6.10
2022-08-07T07:32:51.530Z,5.50
2022-08-07T07:34:06.009Z,4.50
2022-08-07T07:35:13.430Z,5.70
2022-08-07T07:36:19.239Z,7.20
2022-08-07T07:37:47.194Z,6.10
2022-08-07T07:38:57.500Z,6.30
2022-08-07T07:40:14.801Z,9.30
2022-08-07T07:41:24.553Z,8.70
2022-08-07T07:42:54.406Z,8.40
2022-08-07T07:44:17.683Z,7.70
2022-08-07T07:46:40.373Z,16.60
2022-08-07T07:47:15.988Z,8.70
2022-08-07T07:48:36.122Z,6.40
2022-08-07T07:50:34.215Z,8.20
2022-08-07T07:51:15.433Z,6.90
2022-08-07T07:52:23.554Z,7.90
2022-08-07T07:53:34.972Z,10.30
2022-08-07T07:54:51.193Z,12.40
2022-08-07T07:56:01.358Z,7.60
2022-08-07T07:57:08.382Z,8.70
2022-08-07T07:58:18.598Z,7.50
2022-08-07T07:59:52.512Z,8.50
2022-08-07T08:00:55.963Z,7.60
2022-08-07T08:02:10.409Z,8.70
2022-08-07T08:04:10.435Z,8.10
2022-08-07T08:04:50.101Z,9.00
2022-08-07T08:05:57.823Z,8.60
2022-08-07T08:07:07.626Z,6.70
2022-08-07T08:08:34.236Z,9.00
2022-08-07T08:09:52.205Z,7.80
2022-08-07T08:11:16.206Z,7.80
2022-08-07T08:12:51.548Z,7.40
2022-08-07T08:13:57.449Z,7.10
2022-08-07T08:15:06.810Z,6.80
2022-08-07T08:16:18.486Z,12.00
2022-08-07T08:17:57.160Z,22.40
2022-08-07T08:18:57.132Z,6.00
2022-08-07T08:20:22.282Z,7.60
2022-08-07T08:21:56.014Z,14.20
2022-08-07T08:23:29.323Z,7.30
2022-08-07T08:25:09.386Z,12.30
2022-08-07T08:26:51.879Z,6.80
2022-08-07T08:28:03.999Z,6.30
2022-08-07T08:29:11.304Z,12.20
2022-08-07T08:30:19.719Z,16.90
2022-08-07T08:32:16.975Z,10.80
2022-08-07T08:33:15.230Z,17.80
2022-08-07T08:34:27.050Z,10.30
2022-08-07T08:35:46.986Z,6.90
2022-08-07T08:36:58.863Z,8.10
2022-08-07T08:38:06.743Z,8.30
2022-08-07T08:39:16.535Z,8.90
2022-08-07T08:40:52.271Z,13.40
2022-08-07T08:42:06.325Z,10.50
2022-08-07T08:43:18.028Z,11.00
2022-08-07T08:44:49.647Z,10.40
2022-08-07T08:46:08.228Z,11.20
2022-08-07T08:47:54.762Z,8.10
2022-08-07T08:50:04.636Z,6.00
2022-08-07T08:52:14.032Z,6.90
2022-08-07T08:53:39.058Z,6.90
2022-08-07T08:55:54.808Z,7.30
2022-08-07T08:56:53.238Z,11.80
2022-08-07T08:58:03.553Z,9.70
2022-08-07T08:59:27.836Z,9.80
2022-08-07T09:00:42.562Z,6.40
2022-08-07T09:02:02.100Z,6.90
2022-08-07T09:03:47.364Z,8.50
2022-08-07T09:05:15.116Z,8.80
2022-08-07T09:07:15.593Z,7.70
2022-08-07T09:08:46.917Z,9.60
2022-08-07T09:10:29.982Z,9.20
2022-08-07T09:12:20.006Z,11.00
2022-08-07T09:13:44.610Z,11.40
2022-08-07T09:16:25.688Z,9.30
2022-08-07T09:17:13.655Z,10.90
2022-08-07T09:19:07.136Z,12.00
2022-08-07T09:21:13.769Z,9.80
2022-08-07T09:24:33.531Z,10.30
2022-08-07T09:24:58.948Z,14.40
2022-08-07T09:26:39.112Z,10.40
2022-08-07T09:30:00.909Z,7.70
2022-08-07T09:30:09.171Z,8.50
2022-08-07T09:31:21.771Z,14.40
2022-08-07T09:32:46.280Z,9.70
2022-08-07T09:34:42.413Z,9.90
2022-08-07T09:36:12.714Z,8.30
2022-08-07T09:38:00.761Z,11.60
2022-08-07T09:39:54.421Z,10.70
2022-08-07T09:41:58.417Z,10.90
2022-08-07T09:44:03.127Z,11.60
2022-08-07T09:47:27.797Z,9.50
2022-08-07T09:47:52.780Z,11.50
2022-08-07T09:50:02.654Z,8.50
2022-08-07T09:51:00.225Z,8.00
2022-08-07T09:52:33.261Z,8.10
2022-08-07T09:53:48.903Z,10.70
2022-08-07T09:56:04.011Z,5.70
2022-08-07T09:57:46.299Z,6.00
2022-08-07T09:59:18.844Z,6.00
2022-08-07T10:00:33.665Z,10.10
2022-08-07T10:01:54.459Z,7.20
2022-08-07T10:04:06.621Z,8.20
2022-08-07T10:04:45.966Z,9.60
2022-08-07T10:06:10.546Z,9.20
2022-08-07T10:07:57.545Z,7.00
2022-08-07T10:09:16.070Z,9.60
2022-08-07T10:12:52.786Z,7.90
2022-08-07T10:14:11.717Z,8.80
2022-08-07T10:15:52.874Z,9.90
2022-08-07T10:18:02.508Z,11.60
2022-08-07T10:19:38.639Z,10.50
2022-08-07T10:22:12.231Z,8.00
2022-08-07T10:24:06.442Z,9.40
2022-08-07T10:25:42.343Z,9.10
2022-08-07T10:27:00.157Z,9.70
2022-08-07T10:28:12.763Z,9.20
2022-08-07T10:29:30.487Z,10.90
2022-08-07T10:30:58.771Z,7.60
2022-08-07T10:32:51.419Z,8.10
2022-08-07T10:34:17.786Z,13.30
2022-08-07T10:36:05.447Z,10.30
2022-08-07T10:38:00.213Z,8.30
2022-08-07T10:39:42.088Z,10.50
2022-08-07T10:41:46.937Z,6.40
2022-08-07T10:43:34.159Z,6.90
2022-08-07T10:45:19.427Z,10.60
2022-08-07T10:46:38.064Z,10.00
2022-08-07T10:48:21.005Z,10.50
2022-08-07T10:49:51.763Z,9.00
2022-08-07T10:51:16.965Z,9.50
2022-08-07T10:53:21.580Z,7.80
2022-08-07T10:54:53.537Z,7.60
2022-08-07T10:56:33.695Z,10.90
2022-08-07T10:57:45.147Z,10.70
2022-08-07T10:59:49.469Z,7.40
2022-08-07T11:01:23.551Z,10.00
2022-08-07T11:02:49.119Z,11.90
2022-08-07T11:04:16.953Z,7.90
2022-08-07T11:05:44.810Z,7.30
2022-08-07T11:07:59.565Z,9.30
2022-08-07T11:10:07.840Z,9.30
2022-08-07T11:10:57.787Z,7.70
2022-08-07T11:12:31.643Z,7.70
2022-08-07T11:14:45.488Z,8.20
2022-08-07T11:15:31.814Z,11.30
2022-08-07T11:17:07.368Z,7.10
2022-08-07T11:18:27.452Z,8.90
2022-08-07T11:19:41.908Z,10.00
2022-08-07T11:21:07.580Z,7.50
2022-08-07T11:22:54.950Z,11.30
2022-08-07T11:24:08.396Z,7.20
2022-08-07T11:25:30.680Z,15.40
2022-08-07T11:27:13.486Z,8.40
2022-08-07T11:28:44.634Z,9.90
2022-08-07T11:30:10.145Z,6.80
2022-08-07T11:31:51.852Z,8.60
2022-08-07T11:33:02.010Z,8.20
2022-08-07T11:34:22.391Z,9.70
2022-08-07T11:35:35.625Z,10.00
2022-08-07T11:37:58.372Z,13.40
2022-08-07T11:39:39.834Z,8.10
2022-08-07T11:41:02.178Z,7.40
2022-08-07T11:42:29.621Z,7.90
2022-08-07T11:44:10.983Z,9.20
2022-08-07T11:45:53.105Z,9.10
2022-08-07T11:47:26.250Z,11.00
2022-08-07T11:49:50.490Z,7.60
2022-08-07T11:51:41.500Z,8.60
2022-08-07T11:53:29.761Z,11.50
2022-08-07T11:54:57.303Z,8.90
2022-08-07T11:56:27.570Z,9.40
2022-08-07T11:58:00.690Z,13.10
2022-08-07T12:00:10.858Z,9.20
2022-08-07T12:01:25.919Z,11.80
2022-08-07T12:03:44.423Z,10.00
2022-08-07T12:05:41.662Z,8.60
2022-08-07T12:07:27.338Z,8.00
2022-08-07T12:08:38.984Z,10.60
2022-08-07T12:10:05.924Z,6.50
2022-08-07T12:11:43.417Z,9.90
2022-08-07T12:13:37.157Z,10.80
2022-08-07T12:14:56.420Z,5.40
2022-08-07T12:16:15.871Z,9.60
2022-08-07T12:17:59.573Z,7.90
2022-08-07T12:19:35.643Z,9.70
2022-08-07T12:22:36.639Z,8.10
2022-08-07T12:23:09.003Z,8.40
2022-08-07T12:24:37.307Z,7.40
2022-08-07T12:26:05.653Z,7.40
2022-08-07T12:27:28.125Z,8.30
2022-08-07T12:29:01.319Z,6.40
2022-08-07T12:30:12.480Z,7.30
2022-08-07T12:32:03.834Z,9.10
2022-08-07T12:33:28.302Z,10.10
2022-08-07T12:34:38.568Z,7.70
2022-08-07T12:35:48.516Z,7.70
2022-08-07T12:37:08.802Z,9.10
2022-08-07T12:38:36.918Z,11.30
2022-08-07T12:39:51.550Z,7.10
2022-08-07T12:41:00.561Z,9.00
2022-08-07T12:42:08.805Z,11.10
2022-08-07T12:44:01.756Z,8.80
2022-08-07T12:44:50.093Z,9.30
2022-08-07T12:46:34.764Z,8.70
2022-08-07T12:48:28.478Z,8.90
2022-08-07T12:50:34.371Z,9.00
2022-08-07T12:52:14.377Z,8.00
2022-08-07T12:54:02.843Z,7.20
2022-08-07T12:55:41.035Z,13.50
2022-08-07T12:57:05.739Z,7.10
2022-08-07T12:58:17.664Z,9.20
2022-08-07T12:59:53.822Z,12.50
2022-08-07T13:01:32.029Z,7.20
2022-08-07T13:02:55.333Z,6.40
2022-08-07T13:04:09.801Z,8.40
2022-08-07T13:06:03.969Z,7.20
2022-08-07T13:08:14.054Z,9.00
2022-08-07T13:10:18.782Z,10.70
2022-08-07T13:11:01.843Z,9.70
2022-08-07T13:12:51.903Z,9.20
2022-08-07T13:14:14.746Z,14.30
2022-08-07T13:15:39.327Z,9.20
2022-08-07T13:16:50.702Z,12.80
2022-08-07T13:18:08.306Z,9.00
2022-08-07T13:19:53.196Z,9.60
2022-08-07T13:21:51.112Z,13.00
2022-08-07T13:24:00.578Z,8.00
2022-08-07T13:24:54.032Z,7.60
2022-08-07T13:26:15.756Z,9.90
2022-08-07T13:28:10.768Z,7.50
2022-08-07T13:29:47.696Z,6.90
2022-08-07T13:31:06.388Z,8.60
2022-08-07T13:32:51.336Z,7.40
2022-08-07T13:34:33.684Z,7.30
2022-08-07T13:36:05.521Z,10.40
2022-08-07T13:37:24.837Z,6.30
2022-08-07T13:38:44.764Z,7.90
2022-08-07T13:40:35.013Z,9.60
2022-08-07T13:41:54.643Z,9.40
2022-08-07T13:43:11.705Z,9.20
2022-08-07T13:44:34.674Z,6.60
2022-08-07T13:46:11.682Z,8.80
2022-08-07T13:47:15.059Z,6.00
2022-08-07T13:48:34.909Z,6.90
2022-08-07T13:50:33.459Z,7.50
2022-08-07T13:51:26.984Z,9.00
2022-08-07T13:52:41.198Z,7.90
2022-08-07T13:54:00.537Z,9.70
2022-08-07T13:55:19.307Z,8.70
2022-08-07T13:56:35.357Z,11.20
2022-08-07T13:58:01.772Z,9.90
2022-08-07T13:59:27.097Z,10.40
2022-08-07T14:00:39.484Z,15.20
2022-08-07T14:02:10.202Z,11.80
2022-08-07T14:03:30.041Z,12.30
2022-08-07T14:04:54.841Z,12.50
2022-08-07T14:06:02.629Z,14.20
2022-08-07T14:07:10.468Z,11.40
2022-08-07T14:08:16.716Z,13.40
2022-08-07T14:10:02.166Z,12.00
2022-08-07T14:11:14.979Z,14.10
2022-08-07T14:12:41.655Z,10.80
2022-08-07T14:13:57.251Z,15.50
2022-08-07T14:15:06.370Z,11.20
2022-08-07T14:16:16.739Z,14.10
2022-08-07T14:17:51.483Z,11.80
2022-08-07T14:18:57.280Z,14.10
2022-08-07T14:20:40.817Z,14.00
2022-08-07T14:22:03.462Z,11.20
2022-08-07T14:23:31.566Z,12.70
2022-08-07T14:24:54.499Z,9.00
2022-08-07T14:26:06.307Z,12.40
2022-08-07T14:28:10.484Z,15.10
2022-08-07T14:28:55.961Z,11.40
2022-08-07T14:30:32.525Z,16.00
2022-08-07T14:33:08.498Z,14.50
2022-08-07T14:34:20.316Z,13.10
2022-08-07T14:35:44.499Z,16.00
2022-08-07T14:36:56.630Z,13.90
2022-08-07T14:38:06.022Z,10.10
2022-08-07T14:40:15.608Z,11.10
2022-08-07T14:40:43.303Z,13.60
2022-08-07T14:42:18.812Z,10.30
2022-08-07T14:45:22.502Z,11.90
2022-08-07T14:46:31.999Z,8.60
2022-08-07T14:47:41.006Z,7.10
2022-08-07T14:48:52.110Z,11.30
2022-08-07T14:50:00.209Z,10.30
2022-08-07T14:51:15.736Z,8.50
2022-08-07T14:52:27.325Z,8.20
2022-08-07T14:54:05.764Z,11.70
2022-08-07T14:55:17.720Z,10.60
2022-08-07T14:56:29.891Z,11.30
2022-08-07T14:59:14.050Z,12.00
2022-08-07T15:00:37.500Z,10.10
2022-08-07T15:04:41.548Z,11.60
2022-08-07T15:06:04.080Z,10.00
2022-08-07T15:07:21.426Z,10.40
2022-08-07T15:08:35.440Z,13.60
2022-08-07T15:10:04.697Z,9.60
2022-08-07T15:11:15.060Z,9.00
2022-08-07T15:12:42.182Z,10.40
2022-08-07T15:15:42.138Z,11.40
2022-08-07T15:16:56.344Z,11.20
2022-08-07T15:19:01.526Z,16.40
2022-08-07T15:20:33.386Z,12.20
2022-08-07T15:22:04.653Z,8.30
2022-08-07T15:25:02.650Z,6.10
2022-08-07T15:26:34.141Z,9.20
2022-08-07T15:30:04.746Z,6.60
2022-08-07T15:31:04.485Z,7.20
2022-08-07T15:32:13.591Z,10.40
2022-08-07T15:33:20.777Z,10.70
2022-08-07T15:34:50.693Z,7.10
2022-08-07T15:36:09.797Z,7.10
2022-08-07T15:37:27.359Z,6.00
2022-08-07T15:38:51.391Z,6.90
2022-08-07T15:40:11.285Z,9.10
2022-08-07T15:42:48.377Z,7.80
2022-08-07T15:44:02.441Z,6.50
2022-08-07T15:45:11.729Z,7.80
2022-08-07T15:46:31.699Z,5.70
2022-08-07T15:48:01.406Z,8.90
2022-08-07T15:49:15.332Z,7.90
2022-08-07T15:50:38.024Z,6.80
2022-08-07T15:53:14.322Z,5.10
2022-08-07T15:54:22.026Z,4.50
2022-08-07T15:55:58.773Z,6.10
2022-08-07T15:57:01.255Z,8.60
2022-08-07T15:58:10.463Z,9.00
2022-08-07T15:59:40.032Z,5.00
2022-08-07T16:00:53.388Z,5.60
2022-08-07T16:02:02.801Z,5.30
2022-08-07T16:03:46.420Z,6.10
2022-08-07T16:05:01.045Z,4.50
2022-08-07T16:06:09.589Z,6.00
2022-08-07T16:08:30.695Z,9.00
2022-08-07T16:08:46.437Z,7.30
2022-08-07T16:10:15.022Z,6.10
2022-08-07T16:12:04.122Z,6.50
2022-08-07T16:13:58.489Z,7.50
2022-08-07T16:15:57.561Z,8.00
2022-08-07T16:18:01.788Z,5.90
2022-08-07T16:19:59.200Z,8.10
2022-08-07T16:22:02.402Z,5.80
2022-08-07T16:23:09.788Z,7.20
2022-08-07T16:24:52.633Z,10.70
2022-08-07T16:26:14.428Z,7.40
2022-08-07T16:27:59.669Z,8.70
2022-08-07T16:30:11.777Z,6.80
2022-08-07T16:31:04.259Z,7.90
2022-08-07T16:32:34.544Z,5.80
2022-08-07T16:34:03.081Z,10.80
2022-08-07T16:35:52.377Z,5.80
2022-08-07T16:38:06.628Z,5.70
2022-08-07T16:39:52.759Z,7.10
2022-08-07T16:41:22.274Z,6.10
2022-08-07T16:43:06.279Z,9.00
2022-08-07T16:44:47.354Z,6.00
2022-08-07T16:48:23.180Z,9.50
2022-08-07T16:50:37.216Z,11.90
2022-08-07T16:52:49.324Z,9.20
2022-08-07T16:54:06.708Z,11.40
2022-08-07T16:55:28.686Z,10.80
2022-08-07T16:58:03.041Z,12.60
2022-08-07T16:59:46.992Z,9.00
2022-08-07T17:01:07.811Z,10.90
2022-08-07T17:02:51.797Z,18.50
2022-08-07T17:04:57.460Z,15.80
2022-08-07T17:06:30.345Z,10.20
2022-08-07T17:07:57.904Z,20.60
2022-08-07T17:10:07.228Z,15.60
2022-08-07T17:10:55.682Z,17.30
2022-08-07T17:12:34.077Z,13.10
2022-08-07T17:14:22.052Z,16.30
2022-08-07T17:16:01.972Z,20.30
2022-08-07T17:17:16.730Z,15.30
2022-08-07T17:18:49.987Z,16.80
2022-08-07T17:20:20.682Z,18.30
2022-08-07T17:21:51.524Z,16.60
2022-08-07T17:23:12.976Z,13.90
2022-08-07T17:24:25.972Z,19.20
2022-08-07T17:26:23.381Z,13.10
2022-08-07T17:27:52.577Z,15.80
2022-08-07T17:30:14.010Z,13.10
2022-08-07T17:31:15.590Z,12.00
2022-08-07T17:32:35.234Z,15.70
2022-08-07T17:34:18.337Z,13.20
2022-08-07T17:36:01.365Z,13.40
2022-08-07T17:38:09.846Z,13.10
2022-08-07T17:39:57.698Z,11.80
2022-08-07T17:42:04.182Z,12.70
2022-08-07T17:43:07.330Z,9.80
2022-08-07T17:44:45.498Z,14.10
2022-08-07T17:46:55.466Z,10.50
2022-08-07T17:48:13.247Z,10.70
2022-08-07T17:49:59.180Z,14.50
2022-08-07T17:51:23.270Z,10.00
2022-08-07T17:52:39.713Z,11.80
2022-08-07T17:54:29.846Z,10.20
2022-08-07T17:56:06.896Z,8.60
2022-08-07T17:57:21.291Z,10.50
2022-08-07T17:58:34.522Z,5.20
2022-08-07T17:59:46.693Z,6.50
2022-08-07T18:01:01.427Z,9.90
2022-08-07T18:02:14.978Z,10.40
2022-08-07T18:04:16.131Z,6.40
2022-08-07T18:06:01.605Z,9.40
2022-08-07T18:07:21.005Z,8.80
2022-08-07T18:09:00.270Z,9.40
2022-08-07T18:12:17.690Z,8.80
2022-08-07T18:12:37.085Z,6.00
2022-08-07T18:14:03.167Z,9.90
2022-08-07T18:15:32.814Z,8.30
2022-08-07T18:17:10.825Z,6.70
2022-08-07T18:18:46.130Z,4.90
2022-08-07T18:21:08.366Z,5.70
2022-08-07T18:21:58.099Z,7.80
2022-08-07T18:23:42.163Z,6.30
2022-08-07T18:24:57.012Z,9.00
2022-08-07T18:26:15.143Z,6.70
2022-08-07T18:27:51.151Z,13.60
2022-08-07T18:30:05.886Z,5.90
2022-08-07T18:31:03.063Z,5.50
2022-08-07T18:32:47.825Z,5.90
2022-08-07T18:35:00.901Z,6.00
2022-08-07T18:36:54.160Z,4.90
2022-08-07T18:38:58.642Z,4.30
2022-08-07T18:40:18.256Z,4.40
2022-08-07T18:42:13.374Z,4.10
2022-08-07T18:43:42.591Z,4.10
2022-08-07T18:45:44.953Z,6.50
2022-08-07T18:47:22.678Z,7.60
2022-08-07T18:50:03.365Z,4.50
2022-08-07T18:50:44.008Z,5.20
2022-08-07T18:52:53.699Z,6.20
2022-08-07T18:54:40.645Z,4.50
2022-08-07T18:56:30.718Z,4.10
2022-08-07T18:57:59.446Z,5.10
2022-08-07T18:59:46.897Z,4.90
2022-08-07T19:02:18.066Z,4.90
2022-08-07T19:03:16.367Z,6.40
2022-08-07T19:04:57.809Z,4.70
2022-08-07T19:06:20.665Z,3.30
2022-08-07T19:08:08.125Z,5.50
2022-08-07T19:09:56.148Z,5.40
2022-08-07T19:11:36.152Z,6.30
2022-08-07T19:13:11.486Z,2.80
2022-08-07T19:15:00.551Z,3.50
2022-08-07T19:17:06.040Z,5.30
2022-08-07T19:18:13.426Z,4.00